Time;durP1;ratioP1;P1;durP2;ratioP2;P2;SDS_P1;SDS_P2;PMS_P1;PMS_P2;Temp;Humidity;BMP_temperature;BMP_pressure;BME280_temperature;BME280_humidity;BME280_pressure;Samples;Min_cycle;Max_cycle;Signal;HPM_P1;HPM_P2
2022/03/17 00:01:24;;;;;;;160.02;73.03;;;;;;;;;;6243634;28;20129;-66
2022/03/17 00:04:24;;;;;;;125.15;59.83;;;;;;;;;;6243688;28;20025;-66
2022/03/17 00:07:24;;;;;;;121.50;61.28;;;;;;;;;;6243089;28;20071;-66
2022/03/17 00:10:25;;;;;;;114.70;58.40;;;;;;;;;;6242856;28;20075;-66
2022/03/17 00:13:26;;;;;;;133.40;59.90;;;;;;;;;;6243310;28;20025;-66
2022/03/17 00:16:26;;;;;;;114.20;53.80;;;;;;;;;;6242998;28;20517;-66
2022/03/17 00:19:26;;;;;;;99.03;50.10;;;;;;;;;;6246474;28;20017;-66
2022/03/17 00:22:26;;;;;;;89.95;49.95;;;;;;;;;;6238849;28;20473;-66
2022/03/17 00:25:29;;;;;;;88.90;49.88;;;;;;;;;;6223406;28;20417;-66
2022/03/17 00:28:29;;;;;;;87.07;45.75;;;;;;;;;;6241110;28;20040;-66
2022/03/17 00:31:30;;;;;;;92.93;47.95;;;;;;;;;;6248671;28;20029;-66
2022/03/17 00:34:30;;;;;;;74.60;38.10;;;;;;;;;;6247436;28;20432;-66
2022/03/17 00:37:30;;;;;;;93.60;46.35;;;;;;;;;;6247420;28;20226;-66
2022/03/17 00:40:30;;;;;;;79.35;42.25;;;;;;;;;;6247117;28;20028;-66
2022/03/17 00:43:33;;;;;;;79.93;45.20;;;;;;;;;;6247802;28;20014;-66
2022/03/17 00:46:34;;;;;;;94.53;48.33;;;;;;;;;;6247735;28;20036;-66
2022/03/17 00:49:34;;;;;;;86.70;47.08;;;;;;;;;;6247118;28;20242;-66
2022/03/17 00:52:34;;;;;;;89.97;48.25;;;;;;;;;;6246720;28;20053;-66
2022/03/17 00:55:35;;;;;;;82.88;45.25;;;;;;;;;;6229168;28;20037;-66
2022/03/17 00:58:35;;;;;;;88.00;45.55;;;;;;;;;;6247739;28;20029;-66
2022/03/17 01:01:35;;;;;;;90.20;48.20;;;;;;;;;;6247697;28;20022;-67
2022/03/17 01:04:35;;;;;;;98.95;45.40;;;;;;;;;;6247037;28;20017;-66
2022/03/17 01:07:37;;;;;;;82.32;45.47;;;;;;;;;;6247088;28;20473;-66
2022/03/17 01:10:38;;;;;;;98.03;47.33;;;;;;;;;;6246156;28;20354;-66
2022/03/17 01:13:39;;;;;;;81.93;45.65;;;;;;;;;;6247113;28;20043;-66
2022/03/17 01:16:39;;;;;;;93.53;47.25;;;;;;;;;;6246455;28;20056;-66
2022/03/17 01:19:40;;;;;;;90.72;46.35;;;;;;;;;;6246387;28;20133;-66
2022/03/17 01:22:40;;;;;;;88.78;46.35;;;;;;;;;;6234682;28;20014;-66
2022/03/17 01:25:40;;;;;;;92.22;45.47;;;;;;;;;;6246383;28;20100;-66
2022/03/17 01:28:41;;;;;;;90.68;48.15;;;;;;;;;;6221577;28;20022;-66
2022/03/17 01:31:42;;;;;;;95.07;46.40;;;;;;;;;;6237152;28;20451;-66
2022/03/17 01:34:42;;;;;;;86.70;48.40;;;;;;;;;;6245590;28;20072;-66
2022/03/17 01:37:42;;;;;;;91.47;47.30;;;;;;;;;;6245940;28;20022;-66
2022/03/17 01:40:43;;;;;;;85.57;47.42;;;;;;;;;;6245898;28;20021;-66
2022/03/17 01:43:43;;;;;;;89.30;45.63;;;;;;;;;;6245072;28;20063;-66
2022/03/17 01:50:04;;;;;;;87.00;49.17;;;;;;;;;;6221363;28;20401;-66
2022/03/17 01:53:04;;;;;;;86.85;46.72;;;;;;;;;;6226691;28;20041;-66
2022/03/17 01:56:05;;;;;;;97.35;49.45;;;;;;;;;;6235961;28;20021;-66
2022/03/17 01:59:05;;;;;;;99.15;45.03;;;;;;;;;;6245719;28;20429;-65
2022/03/17 02:02:06;;;;;;;91.68;46.88;;;;;;;;;;6246206;28;20091;-65
2022/03/17 02:05:07;;;;;;;93.90;48.73;;;;;;;;;;6245743;28;20025;-65
2022/03/17 02:08:09;;;;;;;86.47;47.10;;;;;;;;;;6245620;28;20025;-65
2022/03/17 02:14:28;;;;;;;95.55;48.95;;;;;;;;;;6245936;28;20116;-65
2022/03/17 02:17:31;;;;;;;90.43;49.15;;;;;;;;;;6245223;28;20032;-65
2022/03/17 02:20:33;;;;;;;85.68;45.90;;;;;;;;;;6245121;28;20477;-65
2022/03/17 02:26:52;;;;;;;89.05;46.85;;;;;;;;;;6245100;28;20473;-65
2022/03/17 02:29:52;;;;;;;87.53;46.80;;;;;;;;;;6245223;28;20032;-65
2022/03/17 02:32:59;;;;;;;93.55;45.80;;;;;;;;;;6244162;28;20037;-65
2022/03/17 02:36:00;;;;;;;87.97;46.03;;;;;;;;;;6245216;28;20034;-65
2022/03/17 02:39:00;;;;;;;87.95;45.88;;;;;;;;;;6244578;28;20029;-65
2022/03/17 02:42:00;;;;;;;87.85;45.28;;;;;;;;;;6241259;28;20018;-65
2022/03/17 02:45:01;;;;;;;93.07;48.83;;;;;;;;;;6239320;28;20104;-65
2022/03/17 02:48:04;;;;;;;88.53;46.13;;;;;;;;;;6244407;28;20026;-65
2022/03/17 02:51:05;;;;;;;94.22;48.88;;;;;;;;;;6243992;28;20021;-65
2022/03/17 02:54:05;;;;;;;93.90;49.78;;;;;;;;;;6231345;28;20422;-65
2022/03/17 02:57:08;;;;;;;94.53;48.60;;;;;;;;;;6233066;28;20026;-65
2022/03/17 03:00:10;;;;;;;92.15;47.13;;;;;;;;;;6244362;28;20016;-65
2022/03/17 03:03:10;;;;;;;88.40;46.00;;;;;;;;;;6243809;28;20053;-65
2022/03/17 03:06:10;;;;;;;86.10;42.40;;;;;;;;;;6226321;28;20392;-65
2022/03/17 03:09:12;;;;;;;87.22;44.20;;;;;;;;;;6241084;28;20043;-65
2022/03/17 03:12:12;;;;;;;91.47;48.70;;;;;;;;;;6241392;28;20391;-64
2022/03/17 03:15:12;;;;;;;88.82;43.78;;;;;;;;;;6243619;28;20021;-65
2022/03/17 03:18:13;;;;;;;91.47;45.28;;;;;;;;;;6244244;28;20092;-65
2022/03/17 03:21:14;;;;;;;91.53;47.80;;;;;;;;;;6239813;28;20036;-64
2022/03/17 03:24:14;;;;;;;96.05;47.53;;;;;;;;;;6219132;28;20025;-64
2022/03/17 03:27:14;;;;;;;81.15;46.03;;;;;;;;;;6227196;28;20496;-64
2022/03/17 03:30:15;;;;;;;85.43;43.88;;;;;;;;;;6243208;28;20040;-64
2022/03/17 03:33:15;;;;;;;99.88;48.67;;;;;;;;;;6243713;28;20083;-64
2022/03/17 03:39:35;;;;;;;90.47;46.47;;;;;;;;;;6243528;28;20033;-64
2022/03/17 03:42:35;;;;;;;99.57;48.10;;;;;;;;;;6243250;28;20527;-65
2022/03/17 03:45:36;;;;;;;97.13;50.13;;;;;;;;;;6243278;28;20034;-64
2022/03/17 03:48:37;;;;;;;92.38;47.45;;;;;;;;;;6243215;28;20076;-64
2022/03/17 03:51:38;;;;;;;88.60;47.92;;;;;;;;;;6243530;28;20067;-64
2022/03/17 03:54:39;;;;;;;83.97;45.97;;;;;;;;;;6242094;28;20053;-64
2022/03/17 03:57:39;;;;;;;89.43;50.25;;;;;;;;;;6244374;28;20029;-64
2022/03/17 04:00:41;;;;;;;92.72;47.92;;;;;;;;;;6243168;28;20017;-64
2022/03/17 04:03:42;;;;;;;93.38;48.92;;;;;;;;;;6243384;28;20053;-64
2022/03/17 04:06:45;;;;;;;86.70;49.92;;;;;;;;;;6243379;28;20018;-64
2022/03/17 04:09:45;;;;;;;90.40;50.20;;;;;;;;;;6242679;28;20068;-64
2022/03/17 04:12:46;;;;;;;90.22;46.90;;;;;;;;;;6243025;28;20021;-64
2022/03/17 04:15:46;;;;;;;89.25;44.67;;;;;;;;;;6243480;28;20025;-64
2022/03/17 04:18:46;;;;;;;92.78;50.22;;;;;;;;;;6242869;28;20021;-64
2022/03/17 04:21:47;;;;;;;84.47;49.25;;;;;;;;;;6242917;28;20540;-64
2022/03/17 04:24:48;;;;;;;91.60;46.88;;;;;;;;;;6237196;28;20088;-64
2022/03/17 04:27:48;;;;;;;82.68;45.40;;;;;;;;;;6220659;28;20014;-64
2022/03/17 04:30:48;;;;;;;93.00;51.28;;;;;;;;;;6219849;28;20045;-64
2022/03/17 04:33:49;;;;;;;82.72;45.42;;;;;;;;;;6219410;28;20469;-64
2022/03/17 04:36:50;;;;;;;93.75;48.22;;;;;;;;;;6216775;28;20014;-64
2022/03/17 04:39:51;;;;;;;84.07;45.00;;;;;;;;;;6216872;28;20026;-64
2022/03/17 04:42:51;;;;;;;86.07;47.43;;;;;;;;;;6228066;28;20618;-64
2022/03/17 04:45:51;;;;;;;85.97;45.72;;;;;;;;;;6242614;28;20017;-64
2022/03/17 04:48:52;;;;;;;78.35;42.03;;;;;;;;;;6242216;28;20472;-64
2022/03/17 04:51:52;;;;;;;89.93;47.15;;;;;;;;;;6240794;28;20419;-64
2022/03/17 04:54:52;;;;;;;93.25;43.75;;;;;;;;;;6241722;28;20045;-65
2022/03/17 04:57:53;;;;;;;87.10;43.75;;;;;;;;;;6243540;28;20021;-64
2022/03/17 05:00:53;;;;;;;83.80;47.15;;;;;;;;;;6242176;28;20014;-64
2022/03/17 05:03:53;;;;;;;82.07;44.47;;;;;;;;;;6227225;28;20025;-64
2022/03/17 05:06:53;;;;;;;81.22;44.20;;;;;;;;;;6222918;28;20068;-65
2022/03/17 05:09:54;;;;;;;83.05;41.63;;;;;;;;;;6223295;28;20020;-64
2022/03/17 05:12:55;;;;;;;88.72;48.95;;;;;;;;;;6242688;28;20061;-64
2022/03/17 05:15:55;;;;;;;80.00;44.72;;;;;;;;;;6223072;28;20026;-64
2022/03/17 05:18:55;;;;;;;87.95;43.67;;;;;;;;;;6226378;28;20148;-64
2022/03/17 05:21:56;;;;;;;81.53;47.38;;;;;;;;;;6214868;28;20018;-64
2022/03/17 05:24:56;;;;;;;79.20;44.03;;;;;;;;;;6221626;28;20454;-64
2022/03/17 05:27:57;;;;;;;87.50;46.38;;;;;;;;;;6235169;28;20021;-64
2022/03/17 05:30:57;;;;;;;95.80;44.42;;;;;;;;;;6245927;28;20510;-64
2022/03/17 05:33:57;;;;;;;77.63;41.88;;;;;;;;;;6245929;28;20033;-64
2022/03/17 05:36:57;;;;;;;79.95;42.53;;;;;;;;;;6245657;28;20021;-64
2022/03/17 05:39:58;;;;;;;71.82;43.33;;;;;;;;;;6245949;28;20021;-64
2022/03/17 05:43:00;;;;;;;84.00;45.70;;;;;;;;;;6246000;28;20009;-65
2022/03/17 05:46:01;;;;;;;79.85;44.13;;;;;;;;;;6236509;28;20021;-65
2022/03/17 05:49:01;;;;;;;73.05;37.97;;;;;;;;;;6230910;28;20022;-65
2022/03/17 05:52:02;;;;;;;77.70;42.45;;;;;;;;;;6222643;28;20029;-65
2022/03/17 05:55:02;;;;;;;67.93;39.67;;;;;;;;;;6233513;28;20013;-65
2022/03/17 05:58:03;;;;;;;66.53;38.00;;;;;;;;;;6233607;28;20430;-65
2022/03/17 06:01:03;;;;;;;66.85;39.85;;;;;;;;;;6236804;28;20025;-66
2022/03/17 06:04:03;;;;;;;74.57;39.65;;;;;;;;;;6242462;28;20492;-66
2022/03/17 06:07:04;;;;;;;71.70;40.72;;;;;;;;;;6237878;28;20025;-66
2022/03/17 06:10:05;;;;;;;74.88;42.13;;;;;;;;;;6243170;28;20465;-66
2022/03/17 06:13:05;;;;;;;64.35;38.05;;;;;;;;;;6242380;28;20044;-66
2022/03/17 06:16:06;;;;;;;68.32;39.42;;;;;;;;;;6240552;28;20021;-66
2022/03/17 06:19:06;;;;;;;69.50;39.85;;;;;;;;;;6245563;28;20512;-65
2022/03/17 06:22:06;;;;;;;72.40;37.72;;;;;;;;;;6240776;28;20010;-65
2022/03/17 06:25:07;;;;;;;60.53;36.70;;;;;;;;;;6243653;28;20022;-65
2022/03/17 06:28:08;;;;;;;62.13;37.92;;;;;;;;;;6244327;28;20097;-65
2022/03/17 06:31:08;;;;;;;67.75;35.47;;;;;;;;;;6252140;28;20009;-65
2022/03/17 06:34:08;;;;;;;59.35;37.15;;;;;;;;;;6249110;28;20409;-65
2022/03/17 06:37:09;;;;;;;62.78;37.38;;;;;;;;;;6227574;28;20029;-65
2022/03/17 06:40:10;;;;;;;69.97;35.80;;;;;;;;;;6221066;28;20475;-66
2022/03/17 06:43:11;;;;;;;62.17;34.92;;;;;;;;;;6221159;28;20547;-65
2022/03/17 06:46:11;;;;;;;56.40;33.42;;;;;;;;;;6205320;28;20050;-65
2022/03/17 06:49:12;;;;;;;56.20;33.75;;;;;;;;;;6242960;28;20530;-66
2022/03/17 06:52:12;;;;;;;54.17;33.38;;;;;;;;;;6223804;28;20475;-66
2022/03/17 06:55:12;;;;;;;60.47;34.28;;;;;;;;;;6221390;28;20048;-66
2022/03/17 06:58:13;;;;;;;55.05;33.25;;;;;;;;;;6226252;28;20045;-67
2022/03/17 07:01:13;;;;;;;56.33;34.55;;;;;;;;;;6234723;28;20097;-66
2022/03/17 07:04:13;;;;;;;57.63;34.17;;;;;;;;;;6235058;28;20049;-67
2022/03/17 07:07:13;;;;;;;56.30;34.25;;;;;;;;;;6227091;28;20385;-67
2022/03/17 07:10:15;;;;;;;52.78;35.20;;;;;;;;;;6233004;28;20057;-67
2022/03/17 07:13:16;;;;;;;49.15;33.38;;;;;;;;;;6241481;28;20033;-67
2022/03/17 07:16:18;;;;;;;54.60;31.58;;;;;;;;;;6242405;28;20036;-67
2022/03/17 07:19:18;;;;;;;50.45;31.33;;;;;;;;;;6242462;28;20388;-67
2022/03/17 07:22:18;;;;;;;46.88;32.90;;;;;;;;;;6243339;28;20022;-68
2022/03/17 07:25:19;;;;;;;54.65;30.80;;;;;;;;;;6243096;28;20033;-68
2022/03/17 07:28:21;;;;;;;58.28;30.30;;;;;;;;;;6229786;28;20030;-67
2022/03/17 07:31:21;;;;;;;53.90;30.95;;;;;;;;;;6243730;28;20484;-67
2022/03/17 07:34:21;;;;;;;52.78;26.48;;;;;;;;;;6225197;28;20124;-67
2022/03/17 07:37:21;;;;;;;40.53;23.83;;;;;;;;;;6235291;28;20508;-67
2022/03/17 07:40:22;;;;;;;42.22;26.02;;;;;;;;;;6223840;28;20018;-67
2022/03/17 07:43:23;;;;;;;37.72;23.92;;;;;;;;;;6219895;28;20022;-67
2022/03/17 07:46:23;;;;;;;42.45;27.88;;;;;;;;;;6219328;28;20109;-67
2022/03/17 07:49:24;;;;;;;38.97;23.10;;;;;;;;;;6223022;28;20523;-67
2022/03/17 07:52:24;;;;;;;36.97;22.10;;;;;;;;;;6224488;28;20038;-67
2022/03/17 07:55:25;;;;;;;38.47;24.05;;;;;;;;;;6220873;28;20092;-67
2022/03/17 07:58:26;;;;;;;29.85;19.98;;;;;;;;;;6242449;28;20424;-67
2022/03/17 08:01:26;;;;;;;30.73;18.88;;;;;;;;;;6232206;28;20401;-67
2022/03/17 08:04:26;;;;;;;33.30;18.35;;;;;;;;;;6222895;28;20036;-67
2022/03/17 08:07:28;;;;;;;25.50;16.27;;;;;;;;;;6216481;28;20032;-67
2022/03/17 08:10:28;;;;;;;21.80;13.67;;;;;;;;;;6229743;28;20026;-67
2022/03/17 08:13:28;;;;;;;23.65;13.60;;;;;;;;;;6232632;28;20166;-67
2022/03/17 08:16:28;;;;;;;23.85;13.48;;;;;;;;;;6231635;28;20068;-67
2022/03/17 08:19:29;;;;;;;18.92;11.32;;;;;;;;;;6241836;28;20488;-67
2022/03/17 08:22:29;;;;;;;21.42;12.13;;;;;;;;;;6229745;28;20068;-67
2022/03/17 08:25:30;;;;;;;19.15;10.93;;;;;;;;;;6237313;28;20017;-67
2022/03/17 08:28:30;;;;;;;21.38;11.68;;;;;;;;;;6232287;28;20045;-67
2022/03/17 08:31:30;;;;;;;22.65;12.13;;;;;;;;;;6227667;28;20028;-67
2022/03/17 08:34:32;;;;;;;19.10;10.77;;;;;;;;;;6234402;28;20032;-67
2022/03/17 08:37:32;;;;;;;;;;;;;;;;;;6238608;28;20037;-67
2022/03/17 08:40:33;;;;;;;24.77;13.50;;;;;;;;;;6245892;28;20055;-67
2022/03/17 08:43:33;;;;;;;19.25;10.45;;;;;;;;;;6246736;28;20370;-67
2022/03/17 08:49:52;;;;;;;17.35;10.57;;;;;;;;;;6222898;28;20042;-67
2022/03/17 08:52:53;;;;;;;24.88;12.10;;;;;;;;;;6230360;28;20526;-67
2022/03/17 08:55:53;;;;;;;20.92;11.15;;;;;;;;;;6247309;28;20022;-67
2022/03/17 08:58:53;;;;;;;26.63;15.05;;;;;;;;;;6245682;28;20033;-67
2022/03/17 09:01:54;;;;;;;19.50;10.57;;;;;;;;;;6237143;28;20441;-67
2022/03/17 09:04:54;;;;;;;20.33;9.77;;;;;;;;;;6243903;28;20429;-67
2022/03/17 09:07:55;;;;;;;16.17;9.32;;;;;;;;;;6246551;28;20037;-67
2022/03/17 09:10:56;;;;;;;18.08;10.20;;;;;;;;;;6214549;28;20030;-67
2022/03/17 09:13:58;;;;;;;15.90;10.82;;;;;;;;;;6234022;28;20017;-67
2022/03/17 09:16:58;;;;;;;17.00;10.32;;;;;;;;;;6245170;28;20041;-67
2022/03/17 09:19:58;;;;;;;16.35;10.02;;;;;;;;;;6241673;28;20457;-67
2022/03/17 09:22:59;;;;;;;21.20;10.73;;;;;;;;;;6244453;28;20335;-67
2022/03/17 09:25:59;;;;;;;20.45;11.02;;;;;;;;;;6242032;28;20697;-67
2022/03/17 09:28:59;;;;;;;17.70;11.77;;;;;;;;;;6244980;28;20111;-67
2022/03/17 09:32:00;;;;;;;18.48;11.77;;;;;;;;;;6238383;28;20524;-67
2022/03/17 09:35:01;;;;;;;17.55;12.07;;;;;;;;;;6240899;28;20033;-67
2022/03/17 09:38:02;;;;;;;18.73;10.98;;;;;;;;;;6243720;28;20079;-67
2022/03/17 09:41:23;;;;;;;20.57;10.07;;;;;;;;;;6241398;28;20014;-67
2022/03/17 09:44:23;;;;;;;20.85;11.32;;;;;;;;;;6243256;28;20021;-67
2022/03/17 09:47:27;;;;;;;15.93;10.05;;;;;;;;;;6240366;28;20067;-67
2022/03/17 09:50:28;;;;;;;16.55;9.48;;;;;;;;;;6233821;28;20056;-67
2022/03/17 09:53:31;;;;;;;16.13;7.75;;;;;;;;;;6237090;28;20508;-67
2022/03/17 09:56:31;;;;;;;19.77;11.23;;;;;;;;;;6244552;28;20061;-67
2022/03/17 09:59:31;;;;;;;19.20;10.63;;;;;;;;;;6239044;28;20029;-67
2022/03/17 10:02:32;;;;;;;19.30;11.40;;;;;;;;;;6241996;28;20545;-67
2022/03/17 10:05:33;;;;;;;17.58;11.07;;;;;;;;;;6238805;28;20064;-67
2022/03/17 10:08:36;;;;;;;19.52;13.73;;;;;;;;;;6244012;28;20014;-67
2022/03/17 10:11:37;;;;;;;16.05;10.73;;;;;;;;;;6244170;28;20048;-67
2022/03/17 10:14:45;;;;;;;17.08;10.65;;;;;;;;;;6243298;28;20036;-67
2022/03/17 10:17:45;;;;;;;17.55;10.75;;;;;;;;;;6244325;28;20040;-67
2022/03/17 10:20:46;;;;;;;23.58;11.23;;;;;;;;;;6244895;28;20029;-67
2022/03/17 10:23:47;;;;;;;17.10;9.75;;;;;;;;;;6244209;28;20029;-67
2022/03/17 10:26:51;;;;;;;18.80;9.90;;;;;;;;;;6244114;28;20075;-67
2022/03/17 10:30:03;;;;;;;20.05;10.95;;;;;;;;;;6245255;28;20037;-67
2022/03/17 10:33:04;;;;;;;17.90;10.18;;;;;;;;;;6234033;28;20445;-67
2022/03/17 10:36:15;;;;;;;17.30;10.40;;;;;;;;;;6220929;28;20030;-67
2022/03/17 10:39:15;;;;;;;17.00;9.38;;;;;;;;;;6231893;28;20025;-67
2022/03/17 10:42:23;;;;;;;18.27;10.85;;;;;;;;;;6226245;28;20033;-67
2022/03/17 10:45:27;;;;;;;17.10;9.95;;;;;;;;;;6223974;28;20029;-67
2022/03/17 10:48:28;;;;;;;17.10;10.60;;;;;;;;;;6244450;28;20465;-67
2022/03/17 10:51:41;;;;;;;16.42;10.32;;;;;;;;;;6244577;28;20032;-67
2022/03/17 10:54:43;;;;;;;19.92;11.10;;;;;;;;;;6243819;28;20053;-67
2022/03/17 10:57:43;;;;;;;;;;;;;;;;;;6246011;28;20048;-67
2022/03/17 11:00:46;;;;;;;18.60;12.10;;;;;;;;;;6243751;28;19913;-67
2022/03/17 11:03:48;;;;;;;21.38;10.40;;;;;;;;;;6241800;28;20091;-67
2022/03/17 11:06:48;;;;;;;21.48;12.20;;;;;;;;;;6242506;28;20017;-67
2022/03/17 11:09:49;;;;;;;23.10;14.43;;;;;;;;;;6240134;28;20099;-67
2022/03/17 11:12:50;;;;;;;23.67;12.93;;;;;;;;;;6235505;28;20283;-67
2022/03/17 11:15:59;;;;;;;21.10;13.50;;;;;;;;;;6227498;28;20553;-67
2022/03/17 11:18:59;;;;;;;24.17;13.55;;;;;;;;;;6224937;28;20579;-67
2022/03/17 11:22:05;;;;;;;26.02;13.95;;;;;;;;;;6230513;28;20021;-67
2022/03/17 11:25:19;;;;;;;25.58;14.05;;;;;;;;;;6231279;28;20024;-67
2022/03/17 11:28:29;;;;;;;23.88;14.23;;;;;;;;;;6230347;28;20493;-67
2022/03/17 11:31:48;;;;;;;23.95;16.00;;;;;;;;;;6235073;28;20032;-67
2022/03/17 11:34:48;;;;;;;23.90;16.10;;;;;;;;;;6239113;28;20136;-67
2022/03/17 11:37:49;;;;;;;25.27;15.20;;;;;;;;;;6223347;28;20470;-67
2022/03/17 11:41:05;;;;;;;28.83;14.87;;;;;;;;;;6216941;28;20025;-67
2022/03/17 11:44:05;;;;;;;27.88;15.40;;;;;;;;;;6237278;28;20033;-67
2022/03/17 11:47:09;;;;;;;27.17;16.88;;;;;;;;;;6237100;28;20052;-67
2022/03/17 11:50:25;;;;;;;25.98;17.25;;;;;;;;;;6233728;28;20022;-67
2022/03/17 11:53:37;;;;;;;29.30;18.10;;;;;;;;;;6236840;28;21622;-67
2022/03/17 11:56:43;;;;;;;26.27;14.52;;;;;;;;;;6230247;28;20401;-67
2022/03/17 11:59:55;;;;;;;21.30;12.20;;;;;;;;;;6232163;28;20481;-67
2022/03/17 12:03:05;;;;;;;25.92;14.65;;;;;;;;;;6237125;28;20418;-67
2022/03/17 12:06:05;;;;;;;24.27;12.75;;;;;;;;;;6243084;28;20025;-67
2022/03/17 12:09:08;;;;;;;23.42;14.18;;;;;;;;;;6224414;28;20014;-67
2022/03/17 12:12:25;;;;;;;24.75;14.48;;;;;;;;;;6242555;28;20022;-67
2022/03/17 12:15:34;;;;;;;23.20;14.15;;;;;;;;;;6233095;28;20017;-67
2022/03/17 12:18:53;;;;;;;22.25;13.50;;;;;;;;;;6242894;28;20441;-67
2022/03/17 12:22:03;;;;;;;23.60;14.27;;;;;;;;;;6245585;28;20022;-67
2022/03/17 12:25:16;;;;;;;26.48;15.05;;;;;;;;;;6241860;28;20018;-67
2022/03/17 12:28:16;;;;;;;30.70;14.65;;;;;;;;;;6242823;28;20107;-67
2022/03/17 12:31:16;;;;;;;27.40;15.10;;;;;;;;;;6236115;28;20033;-67
2022/03/17 12:34:17;;;;;;;22.95;13.75;;;;;;;;;;6237643;28;20100;-67
2022/03/17 12:37:18;;;;;;;24.30;13.82;;;;;;;;;;6226010;28;20389;-67
2022/03/17 12:40:19;;;;;;;29.67;13.70;;;;;;;;;;6235303;28;20021;-67
2022/03/17 12:43:21;;;;;;;22.52;12.98;;;;;;;;;;6245126;28;20009;-67
2022/03/17 12:46:22;;;;;;;24.17;14.18;;;;;;;;;;6234442;28;20485;-67
2022/03/17 12:49:22;;;;;;;25.15;13.18;;;;;;;;;;6228799;28;20033;-67
2022/03/17 12:52:30;;;;;;;22.15;14.45;;;;;;;;;;6238295;28;20306;-67
2022/03/17 12:55:31;;;;;;;24.73;12.50;;;;;;;;;;6246257;28;20048;-67
2022/03/17 12:58:40;;;;;;;20.50;11.77;;;;;;;;;;6242704;28;20025;-67
2022/03/17 13:01:41;;;;;;;23.10;13.15;;;;;;;;;;6246206;28;20013;-67
2022/03/17 13:04:42;;;;;;;22.77;12.15;;;;;;;;;;6245999;28;20028;-67
2022/03/17 13:07:44;;;;;;;19.40;11.18;;;;;;;;;;6243251;28;20493;-67
2022/03/17 13:14:25;;;;;;;22.38;12.80;;;;;;;;;;6226142;28;20357;-67
2022/03/17 13:17:28;;;;;;;19.30;11.05;;;;;;;;;;6245207;28;20065;-66
2022/03/17 13:20:28;;;;;;;22.05;13.32;;;;;;;;;;6242575;28;20025;-66
2022/03/17 13:23:35;;;;;;;18.45;11.65;;;;;;;;;;6241521;28;20484;-67
2022/03/17 13:26:35;;;;;;;27.38;14.07;;;;;;;;;;6238853;28;20009;-67
2022/03/17 13:29:36;;;;;;;29.60;12.75;;;;;;;;;;6245284;28;20025;-67
2022/03/17 13:32:36;;;;;;;21.40;11.35;;;;;;;;;;6236237;28;20025;-66
2022/03/17 13:35:38;;;;;;;22.10;11.45;;;;;;;;;;6243752;28;20128;-67
2022/03/17 13:38:38;;;;;;;21.00;11.00;;;;;;;;;;6234335;28;20135;-67
2022/03/17 13:41:38;;;;;;;21.90;11.48;;;;;;;;;;6240390;28;20087;-67
2022/03/17 13:44:49;;;;;;;22.85;10.10;;;;;;;;;;6245626;28;20025;-67
2022/03/17 13:47:58;;;;;;;18.65;9.85;;;;;;;;;;6243908;28;20060;-67
2022/03/17 13:50:59;;;;;;;16.90;9.90;;;;;;;;;;6228996;28;20071;-67
2022/03/17 13:54:03;;;;;;;17.52;11.10;;;;;;;;;;6241612;28;20037;-67
2022/03/17 13:57:04;;;;;;;17.60;9.23;;;;;;;;;;6245153;28;20496;-66
2022/03/17 14:00:18;;;;;;;18.98;8.70;;;;;;;;;;6238540;28;20016;-66
2022/03/17 14:03:18;;;;;;;17.27;9.77;;;;;;;;;;6232937;28;20029;-66
2022/03/17 14:06:19;;;;;;;18.95;9.90;;;;;;;;;;6270259;28;20025;-66
2022/03/17 14:09:20;;;;;;;18.93;10.93;;;;;;;;;;6269578;28;20127;-66
2022/03/17 14:12:20;;;;;;;18.45;10.93;;;;;;;;;;6245004;28;20763;-66
2022/03/17 14:15:21;;;;;;;20.52;9.90;;;;;;;;;;6245014;28;20017;-66
2022/03/17 14:18:21;;;;;;;19.52;10.88;;;;;;;;;;6269350;28;20016;-67
2022/03/17 14:21:22;;;;;;;19.25;9.68;;;;;;;;;;6231656;28;20018;-67
2022/03/17 14:24:28;;;;;;;22.63;10.68;;;;;;;;;;6244820;28;20349;-67
2022/03/17 14:27:28;;;;;;;18.10;9.35;;;;;;;;;;6244022;28;20029;-67
2022/03/17 14:30:29;;;;;;;17.85;10.02;;;;;;;;;;6244795;28;20021;-67
2022/03/17 14:33:29;;;;;;;16.33;8.95;;;;;;;;;;6243720;28;20484;-67
2022/03/17 14:36:31;;;;;;;13.52;8.35;;;;;;;;;;6242713;28;20037;-67
2022/03/17 14:39:31;;;;;;;18.63;9.65;;;;;;;;;;6240993;28;20043;-67
2022/03/17 14:42:33;;;;;;;16.60;7.63;;;;;;;;;;6239086;28;20551;-67
2022/03/17 14:45:33;;;;;;;;;;;;;;;;;;6233868;28;20017;-67
2022/03/17 14:48:34;;;;;;;16.77;8.23;;;;;;;;;;6238274;28;19928;-67
2022/03/17 14:51:35;;;;;;;16.08;8.57;;;;;;;;;;6218238;28;20311;-67
2022/03/17 14:54:36;;;;;;;17.50;9.47;;;;;;;;;;6219719;28;20092;-67
2022/03/17 14:57:36;;;;;;;14.63;7.90;;;;;;;;;;6223818;28;20489;-67
2022/03/17 15:00:37;;;;;;;18.38;7.13;;;;;;;;;;6224474;28;20072;-67
2022/03/17 15:03:38;;;;;;;16.75;8.40;;;;;;;;;;6217216;28;20022;-67
2022/03/17 15:06:38;;;;;;;14.35;8.20;;;;;;;;;;6221336;28;20036;-67
2022/03/17 15:09:38;;;;;;;12.90;7.20;;;;;;;;;;6220524;28;20018;-67
2022/03/17 15:12:39;;;;;;;13.93;8.05;;;;;;;;;;6221544;28;20017;-67
2022/03/17 15:15:39;;;;;;;15.70;7.03;;;;;;;;;;6219408;28;20029;-67
2022/03/17 15:18:39;;;;;;;16.05;8.00;;;;;;;;;;6225217;28;20045;-67
2022/03/17 15:21:40;;;;;;;14.77;8.20;;;;;;;;;;6229848;28;20369;-67
2022/03/17 15:24:40;;;;;;;19.42;9.18;;;;;;;;;;6234967;28;20076;-67
2022/03/17 15:30:59;;;;;;;13.73;8.30;;;;;;;;;;6240503;28;20033;-67
2022/03/17 15:33:59;;;;;;;16.27;9.30;;;;;;;;;;6239669;28;20029;-67
2022/03/17 15:37:00;;;;;;;19.50;9.75;;;;;;;;;;6228947;28;20031;-67
2022/03/17 15:40:00;;;;;;;19.38;9.73;;;;;;;;;;6238041;28;20021;-67
2022/03/17 15:43:03;;;;;;;21.08;10.45;;;;;;;;;;6235014;28;20603;-66
2022/03/17 15:46:04;;;;;;;19.70;9.35;;;;;;;;;;6211508;28;20022;-67
2022/03/17 15:49:04;;;;;;;18.60;9.35;;;;;;;;;;6229044;28;20021;-66
2022/03/17 15:52:07;;;;;;;15.48;7.97;;;;;;;;;;6202866;28;20014;-67
2022/03/17 15:55:08;;;;;;;17.52;8.75;;;;;;;;;;6235841;28;20473;-67
2022/03/17 15:58:08;;;;;;;20.42;8.20;;;;;;;;;;6236558;28;20099;-67
2022/03/17 16:01:08;;;;;;;16.00;9.05;;;;;;;;;;6232351;28;20033;-67
2022/03/17 16:04:10;;;;;;;18.58;10.23;;;;;;;;;;6241029;28;20448;-67
2022/03/17 16:07:11;;;;;;;18.17;8.93;;;;;;;;;;6231910;28;20029;-66
2022/03/17 16:16:49;;;;;;;19.38;8.93;;;;;;;;;;6239152;28;20038;-66
2022/03/17 16:19:54;;;;;;;16.58;9.50;;;;;;;;;;6242052;28;20041;-66
2022/03/17 16:22:54;;;;;;;17.90;9.80;;;;;;;;;;6240441;28;20057;-66
2022/03/17 16:25:54;;;;;;;19.80;10.15;;;;;;;;;;6231351;28;20022;-67
2022/03/17 16:28:55;;;;;;;34.58;15.63;;;;;;;;;;6228480;28;20388;-67
2022/03/17 16:31:57;;;;;;;33.67;12.77;;;;;;;;;;6223583;28;20030;-66
2022/03/17 16:34:58;;;;;;;19.30;10.45;;;;;;;;;;6224119;28;20013;-66
2022/03/17 16:37:59;;;;;;;17.58;9.18;;;;;;;;;;6220033;28;20022;-66
2022/03/17 16:40:59;;;;;;;20.48;10.80;;;;;;;;;;6216405;28;20121;-66
2022/03/17 16:44:00;;;;;;;19.27;9.55;;;;;;;;;;6218577;28;20021;-66
2022/03/17 16:47:00;;;;;;;21.98;11.50;;;;;;;;;;6217566;28;20560;-66
2022/03/17 16:50:01;;;;;;;18.88;9.65;;;;;;;;;;6218319;28;20026;-66
2022/03/17 16:53:01;;;;;;;23.70;11.25;;;;;;;;;;6224244;28;20116;-66
2022/03/17 16:56:02;;;;;;;28.75;12.10;;;;;;;;;;6221959;28;20439;-66
2022/03/17 16:59:02;;;;;;;28.90;11.13;;;;;;;;;;6227707;28;20720;-66
2022/03/17 17:02:02;;;;;;;24.20;11.10;;;;;;;;;;6226281;28;20140;-66
2022/03/17 17:05:03;;;;;;;25.42;10.30;;;;;;;;;;6225908;28;20045;-66
2022/03/17 17:08:03;;;;;;;23.27;11.93;;;;;;;;;;6233864;28;20560;-66
2022/03/17 17:11:04;;;;;;;20.88;11.27;;;;;;;;;;6233990;28;20548;-66
2022/03/17 17:14:04;;;;;;;18.67;10.80;;;;;;;;;;6227575;28;20175;-66
2022/03/17 17:17:05;;;;;;;24.65;10.82;;;;;;;;;;6222805;28;20049;-66
2022/03/17 17:20:06;;;;;;;26.65;12.25;;;;;;;;;;6221549;28;20816;-66
2022/03/17 17:33:04;;;;;;;27.77;11.52;;;;;;;;;;6218343;28;20030;-66
2022/03/17 17:36:04;;;;;;;28.83;12.32;;;;;;;;;;6216789;28;20421;-66
2022/03/17 17:39:05;;;;;;;30.10;13.65;;;;;;;;;;6223078;28;20035;-66
2022/03/17 17:42:08;;;;;;;29.15;13.38;;;;;;;;;;6227461;28;20021;-66
2022/03/17 17:45:09;;;;;;;25.15;10.95;;;;;;;;;;6221931;28;20466;-66
2022/03/17 17:48:09;;;;;;;21.83;11.75;;;;;;;;;;6222099;28;20600;-66
2022/03/17 17:51:10;;;;;;;25.70;12.18;;;;;;;;;;6222090;28;20040;-66
2022/03/17 17:54:10;;;;;;;25.25;12.15;;;;;;;;;;6222770;28;20054;-66
2022/03/17 17:57:10;;;;;;;27.40;12.45;;;;;;;;;;6222971;28;20484;-66
2022/03/17 18:00:13;;;;;;;29.20;14.60;;;;;;;;;;6224953;28;20369;-66
2022/03/17 18:03:13;;;;;;;31.75;12.50;;;;;;;;;;6229024;28;20017;-66
2022/03/17 18:06:14;;;;;;;28.65;13.85;;;;;;;;;;6225291;28;20057;-66
2022/03/17 18:09:14;;;;;;;27.02;12.30;;;;;;;;;;6226820;28;20053;-66
2022/03/17 18:12:14;;;;;;;29.08;13.63;;;;;;;;;;6219874;28;20030;-66
2022/03/17 18:15:15;;;;;;;25.10;12.52;;;;;;;;;;6221262;28;20143;-66
2022/03/17 18:18:16;;;;;;;23.05;10.93;;;;;;;;;;6224548;28;20049;-66